createdAt,value
2019-03-27T00:00:20.081Z,100473.75
2019-03-27T00:02:49.715Z,100476.67
2019-03-27T00:05:19.069Z,100470.42
2019-03-27T00:07:48.449Z,100474.45
2019-03-27T00:10:17.864Z,100471.83
2019-03-27T00:12:47.278Z,100465.52
2019-03-27T00:15:16.681Z,100474.98
2019-03-27T00:17:45.999Z,100474.05
2019-03-27T00:20:15.353Z,100475.73
2019-03-27T00:22:44.875Z,100471.89
2019-03-27T00:25:14.374Z,100466.52
2019-03-27T00:27:43.709Z,100469.31
2019-03-27T00:30:13.657Z,100465.22
2019-03-27T00:32:42.989Z,100464.64
2019-03-27T00:35:12.337Z,100459.09
2019-03-27T00:37:41.706Z,100453.16
2019-03-27T00:40:11.044Z,100453.92
2019-03-27T00:42:40.400Z,100447.30
2019-03-27T00:45:09.751Z,100451.46
2019-03-27T00:47:39.167Z,100447.59
2019-03-27T00:50:08.839Z,100443.47
2019-03-27T00:52:38.287Z,100444.50
2019-03-27T00:55:08.060Z,100444.16
2019-03-27T00:57:37.464Z,100449.94
2019-03-27T01:00:28.505Z,100450.52
2019-03-27T01:02:57.857Z,100444.33
2019-03-27T01:05:27.230Z,100445.27
2019-03-27T01:07:56.573Z,100444.33
2019-03-27T01:10:25.918Z,100446.67
2019-03-27T01:12:55.282Z,100445.80
2019-03-27T01:15:38.794Z,100444.86
2019-03-27T01:17:56.083Z,100444.09
2019-03-27T01:20:25.455Z,100445.84
2019-03-27T01:22:54.784Z,100442.91
2019-03-27T01:25:24.152Z,100442.84
2019-03-27T01:27:55.129Z,100444.84
2019-03-27T01:30:24.531Z,100446.87
2019-03-27T01:32:53.886Z,100450.73
2019-03-27T01:35:23.230Z,100445.84
2019-03-27T01:37:52.600Z,100443.63
2019-03-27T01:40:21.941Z,100447.99
2019-03-27T01:42:51.316Z,100448.12
2019-03-27T01:45:20.646Z,100443.69
2019-03-27T01:47:49.996Z,100443.97
2019-03-27T01:50:19.361Z,100437.27
2019-03-27T01:52:48.685Z,100443.59
2019-03-27T01:55:18.057Z,100436.14
2019-03-27T01:57:47.400Z,100435.61
2019-03-27T02:00:16.747Z,100434.67
2019-03-27T02:02:46.103Z,100433.23
2019-03-27T02:05:15.440Z,100432.77
2019-03-27T02:07:44.828Z,100429.70
2019-03-27T02:10:14.171Z,100426.68
2019-03-27T02:12:43.505Z,100433.39
2019-03-27T02:15:12.864Z,100430.58
2019-03-27T02:17:42.216Z,100436.52
2019-03-27T02:20:11.598Z,100433.48
2019-03-27T02:22:40.945Z,100423.97
2019-03-27T02:25:10.289Z,100433.52
2019-03-27T02:27:39.642Z,100436.78
2019-03-27T02:30:09.223Z,100425.91
2019-03-27T02:32:38.584Z,100423.77
2019-03-27T02:35:07.923Z,100425.99
2019-03-27T02:37:37.335Z,100429.30
2019-03-27T02:40:08.175Z,100432.77
2019-03-27T02:42:39.326Z,100430.50
2019-03-27T02:45:09.095Z,100427.88
2019-03-27T02:47:38.434Z,100436.13
2019-03-27T02:50:08.352Z,100437.73
2019-03-27T02:52:37.707Z,100431.70
2019-03-27T02:55:08.203Z,100428.46
2019-03-27T02:57:37.581Z,100426.59
2019-03-27T03:00:12.188Z,100424.18
2019-03-27T03:02:41.609Z,100423.63
2019-03-27T03:05:10.977Z,100426.60
2019-03-27T03:07:40.319Z,100425.11
2019-03-27T03:10:10.022Z,100423.51
2019-03-27T03:12:39.358Z,100423.25
2019-03-27T03:15:10.133Z,100423.25
2019-03-27T03:17:39.499Z,100427.59
2019-03-27T03:20:09.039Z,100422.31
2019-03-27T03:22:38.465Z,100424.03
2019-03-27T03:25:07.821Z,100422.98
2019-03-27T03:27:37.168Z,100424.23
2019-03-27T03:30:10.185Z,100419.75
2019-03-27T03:32:39.753Z,100422.58
2019-03-27T03:35:09.726Z,100426.72
2019-03-27T03:37:39.059Z,100424.50
2019-03-27T03:40:09.921Z,100429.86
2019-03-27T03:42:39.362Z,100426.45
2019-03-27T03:45:08.756Z,100428.00
2019-03-27T03:47:38.178Z,100424.14
2019-03-27T03:50:08.148Z,100422.55
2019-03-27T03:52:37.493Z,100426.04
2019-03-27T03:55:07.240Z,100435.27
2019-03-27T03:57:37.042Z,100432.95
2019-03-27T04:00:08.199Z,100436.55
2019-03-27T04:02:37.532Z,100435.06
2019-03-27T04:05:08.028Z,100431.97
2019-03-27T04:07:37.395Z,100430.89
2019-03-27T04:10:07.924Z,100428.36
2019-03-27T04:12:37.290Z,100436.02
2019-03-27T04:15:07.920Z,100432.91
2019-03-27T04:17:37.324Z,100439.25
2019-03-27T04:20:08.032Z,100438.88
2019-03-27T04:22:37.648Z,100442.94
2019-03-27T04:25:07.808Z,100445.40
2019-03-27T04:27:37.149Z,100453.97
2019-03-27T04:30:07.829Z,100452.34
2019-03-27T04:32:37.232Z,100454.61
2019-03-27T04:35:07.549Z,100462.47
2019-03-27T04:37:36.965Z,100466.77
2019-03-27T04:40:08.203Z,100466.67
2019-03-27T04:42:37.558Z,100472.30
2019-03-27T04:45:06.919Z,100471.37
2019-03-27T04:47:36.331Z,100471.88
2019-03-27T04:50:07.445Z,100476.48
2019-03-27T04:52:36.765Z,100471.77
2019-03-27T04:55:07.187Z,100471.31
2019-03-27T04:57:36.559Z,100470.29
2019-03-27T05:00:07.996Z,100466.28
2019-03-27T05:02:37.385Z,100472.88
2019-03-27T05:05:08.060Z,100470.92
2019-03-27T05:07:37.390Z,100473.19
2019-03-27T05:10:07.013Z,100472.59
2019-03-27T05:12:38.634Z,100464.24
2019-03-27T05:15:08.431Z,100461.20
2019-03-27T05:17:45.692Z,100475.98
2019-03-27T05:20:09.572Z,100473.23
2019-03-27T05:22:38.958Z,100471.10
2019-03-27T05:25:28.299Z,100465.16
2019-03-27T05:27:57.678Z,100475.44
2019-03-27T05:30:30.858Z,100472.06
2019-03-27T05:33:00.195Z,100467.42
2019-03-27T05:35:29.584Z,100483.05
2019-03-27T05:37:59.001Z,100481.71
2019-03-27T05:40:28.342Z,100478.58
2019-03-27T05:43:00.975Z,100481.71
2019-03-27T05:45:28.775Z,100478.92
2019-03-27T05:47:59.958Z,100486.94
2019-03-27T05:50:29.216Z,100490.08
2019-03-27T05:52:58.548Z,100491.37
2019-03-27T05:55:27.983Z,100493.58
2019-03-27T05:57:57.341Z,100495.01
2019-03-27T06:00:26.684Z,100500.81
2019-03-27T06:02:56.058Z,100497.17
2019-03-27T06:05:44.833Z,100498.19
2019-03-27T06:08:14.195Z,100498.19
2019-03-27T06:10:43.528Z,100498.19
2019-03-27T06:13:12.899Z,100506.11
2019-03-27T06:15:44.978Z,100496.84
2019-03-27T06:18:13.672Z,100498.73
2019-03-27T06:20:43.093Z,100505.55
2019-03-27T06:23:12.465Z,100491.69
2019-03-27T06:25:41.871Z,100499.80
2019-03-27T06:28:11.216Z,100507.51
2019-03-27T06:30:40.572Z,100507.70
2019-03-27T06:33:09.982Z,100509.84
2019-03-27T06:35:39.310Z,100513.77
2019-03-27T06:38:08.652Z,100512.42
2019-03-27T06:40:39.754Z,100510.39
2019-03-27T06:43:09.243Z,100514.98
2019-03-27T06:45:38.702Z,100512.66
2019-03-27T06:48:08.050Z,100508.67
2019-03-27T06:50:37.391Z,100515.66
2019-03-27T06:53:06.755Z,100522.33
2019-03-27T06:55:36.115Z,100523.98
2019-03-27T06:58:05.478Z,100519.37
2019-03-27T07:00:38.398Z,100522.00
2019-03-27T07:03:08.406Z,100517.00
2019-03-27T07:05:37.760Z,100522.13
2019-03-27T07:08:07.099Z,100516.48
2019-03-27T07:10:36.496Z,100516.45
2019-03-27T07:13:05.837Z,100523.02
2019-03-27T07:15:35.936Z,100524.48
2019-03-27T07:18:05.422Z,100521.96
2019-03-27T07:20:34.771Z,100524.42
2019-03-27T07:23:04.156Z,100528.23
2019-03-27T07:25:33.515Z,100533.77
2019-03-27T07:28:02.847Z,100535.36
2019-03-27T07:30:32.248Z,100537.77
2019-03-27T07:33:01.555Z,100541.39
2019-03-27T07:35:30.938Z,100547.89
2019-03-27T07:38:00.350Z,100548.89
2019-03-27T07:40:29.697Z,100546.86
2019-03-27T07:42:59.136Z,100549.26
2019-03-27T07:45:28.482Z,100553.31
2019-03-27T07:47:57.872Z,100569.67
2019-03-27T07:50:27.223Z,100567.09
2019-03-27T07:52:56.580Z,100580.18
2019-03-27T07:55:25.949Z,100572.06
2019-03-27T07:57:55.277Z,100568.32
2019-03-27T08:00:24.674Z,100577.00
2019-03-27T08:02:54.031Z,100581.97
2019-03-27T08:05:23.418Z,100576.44
2019-03-27T08:07:52.770Z,100580.16
2019-03-27T08:10:22.124Z,100572.95
2019-03-27T08:12:51.497Z,100583.66
2019-03-27T08:15:20.850Z,100580.39
2019-03-27T08:17:50.242Z,100580.36
2019-03-27T08:20:19.595Z,100585.67
2019-03-27T08:22:48.942Z,100586.25
2019-03-27T08:25:18.699Z,100584.51
2019-03-27T08:27:48.053Z,100593.93
2019-03-27T08:30:19.059Z,100590.28
2019-03-27T08:32:48.410Z,100587.28
2019-03-27T08:35:17.776Z,100584.67
2019-03-27T08:37:47.155Z,100584.38
2019-03-27T08:40:16.531Z,100583.42
2019-03-27T08:42:45.902Z,100572.00
2019-03-27T08:45:15.250Z,100570.02
2019-03-27T08:47:44.613Z,100569.89
2019-03-27T08:50:14.044Z,100571.55
2019-03-27T08:52:43.387Z,100581.44
2019-03-27T08:55:13.876Z,100586.88
2019-03-27T08:57:43.316Z,100591.48
2019-03-27T09:00:15.682Z,100587.66
2019-03-27T09:02:48.680Z,100590.91
2019-03-27T09:05:18.027Z,100587.52
2019-03-27T09:07:47.399Z,100593.37
2019-03-27T09:10:16.757Z,100589.50
2019-03-27T09:12:46.100Z,100594.75
2019-03-27T09:15:15.480Z,100599.25
2019-03-27T09:17:44.826Z,100598.60
2019-03-27T09:20:14.260Z,100599.16
2019-03-27T09:22:46.666Z,100603.03
2019-03-27T09:25:16.049Z,100598.61
2019-03-27T09:27:45.439Z,100601.36
2019-03-27T09:30:14.779Z,100597.95
2019-03-27T09:32:44.171Z,100597.80
2019-03-27T09:35:13.587Z,100598.75
2019-03-27T09:37:42.950Z,100603.88
2019-03-27T09:40:13.107Z,100603.58
2019-03-27T09:42:42.482Z,100607.43
2019-03-27T09:45:11.921Z,100599.21
2019-03-27T09:47:41.354Z,100604.84
2019-03-27T09:50:10.698Z,100599.72
2019-03-27T09:52:40.063Z,100595.41
2019-03-27T09:55:09.416Z,100596.08
2019-03-27T09:57:38.790Z,100604.17
2019-03-27T10:00:08.370Z,100599.05
2019-03-27T10:02:37.728Z,100595.33
2019-03-27T10:05:08.065Z,100594.37
2019-03-27T10:07:38.578Z,100590.92
2019-03-27T10:10:08.011Z,100588.64
2019-03-27T10:12:37.368Z,100587.30
2019-03-27T10:15:08.365Z,100594.62
2019-03-27T10:17:37.800Z,100594.56
2019-03-27T10:20:07.229Z,100586.84
2019-03-27T10:22:36.628Z,100583.64
2019-03-27T10:25:07.850Z,100583.07
2019-03-27T10:27:37.197Z,100583.00
2019-03-27T10:30:09.727Z,100577.70
2019-03-27T10:32:39.089Z,100584.25
2019-03-27T10:35:08.486Z,100574.17
2019-03-27T10:37:37.840Z,100578.19
2019-03-27T10:40:08.257Z,100580.84
2019-03-27T10:42:37.638Z,100577.70
2019-03-27T10:45:07.986Z,100584.89
2019-03-27T10:47:37.450Z,100582.48
2019-03-27T10:50:16.912Z,100585.09
2019-03-27T10:52:38.268Z,100591.16
2019-03-27T10:55:07.623Z,100591.52
2019-03-27T10:57:36.993Z,100583.01
2019-03-27T11:00:10.118Z,100586.50
2019-03-27T11:02:39.473Z,100590.77
2019-03-27T11:05:08.898Z,100588.16
2019-03-27T11:07:38.265Z,100593.95
2019-03-27T11:10:08.845Z,100585.97
2019-03-27T11:12:38.314Z,100588.19
2019-03-27T11:15:08.304Z,100586.66
2019-03-27T11:17:37.723Z,100583.78
2019-03-27T11:20:08.066Z,100580.44
2019-03-27T11:22:37.428Z,100585.08
2019-03-27T11:25:07.174Z,100588.83
2019-03-27T11:27:36.545Z,100581.73
2019-03-27T11:30:08.628Z,100584.75
2019-03-27T11:32:38.085Z,100579.58
2019-03-27T11:35:07.448Z,100577.48
2019-03-27T11:37:36.802Z,100582.03
2019-03-27T11:40:06.714Z,100574.83
2019-03-27T11:42:36.162Z,100578.00
2019-03-27T11:45:07.806Z,100585.41
2019-03-27T11:47:37.159Z,100582.91
2019-03-27T11:50:09.904Z,100577.33
2019-03-27T11:52:39.297Z,100578.63
2019-03-27T11:55:08.679Z,100576.07
2019-03-27T11:57:38.011Z,100579.59
2019-03-27T12:00:11.167Z,100576.83
2019-03-27T12:02:40.549Z,100585.59
2019-03-27T12:05:09.933Z,100586.32
2019-03-27T12:07:39.287Z,100580.33
2019-03-27T12:10:08.721Z,100581.87
2019-03-27T12:12:38.138Z,100577.75
2019-03-27T12:15:07.846Z,100584.25
2019-03-27T12:17:37.210Z,100579.01
2019-03-27T12:20:07.606Z,100571.95
2019-03-27T12:22:36.971Z,100573.06
2019-03-27T12:25:06.992Z,100573.36
2019-03-27T12:27:36.421Z,100574.98
2019-03-27T12:30:07.839Z,100576.61
2019-03-27T12:32:37.183Z,100573.86
2019-03-27T12:35:06.748Z,100565.16
2019-03-27T12:37:36.097Z,100569.24
2019-03-27T12:40:11.311Z,100569.89
2019-03-27T12:42:37.318Z,100565.23
2019-03-27T12:45:07.728Z,100567.70
2019-03-27T12:47:37.099Z,100564.34
2019-03-27T12:50:07.791Z,100564.23
2019-03-27T12:52:37.155Z,100547.92
2019-03-27T12:55:06.810Z,100548.83
2019-03-27T12:57:36.157Z,100549.31
2019-03-27T13:00:07.981Z,100548.41
2019-03-27T13:02:37.401Z,100547.97
2019-03-27T13:05:07.733Z,100546.86
2019-03-27T13:07:49.474Z,100545.99
2019-03-27T13:10:08.193Z,100544.61
2019-03-27T13:12:37.576Z,100541.51
2019-03-27T13:15:07.892Z,100550.53
2019-03-27T13:17:37.243Z,100552.37
2019-03-27T13:20:07.751Z,100555.92
2019-03-27T13:22:38.385Z,100557.53
2019-03-27T13:25:08.598Z,100557.71
2019-03-27T13:27:38.005Z,100543.85
2019-03-27T13:30:08.507Z,100546.36
2019-03-27T13:32:37.887Z,100551.62
2019-03-27T13:35:07.829Z,100549.45
2019-03-27T13:37:37.206Z,100551.12
2019-03-27T13:40:09.813Z,100546.49
2019-03-27T13:42:39.170Z,100546.13
2019-03-27T13:45:09.929Z,100551.51
2019-03-27T13:47:39.298Z,100551.42
2019-03-27T13:50:13.129Z,100546.53
2019-03-27T13:52:42.975Z,100551.99
2019-03-27T13:55:12.456Z,100549.98
2019-03-27T13:57:41.848Z,100537.45
2019-03-27T14:00:13.695Z,100540.12
2019-03-27T14:02:43.057Z,100541.22
2019-03-27T14:05:12.446Z,100538.70
2019-03-27T14:07:41.848Z,100533.48
2019-03-27T14:10:11.293Z,100526.49
2019-03-27T14:12:40.643Z,100539.42
2019-03-27T14:15:10.097Z,100529.88
2019-03-27T14:17:39.464Z,100533.66
2019-03-27T14:20:09.163Z,100523.38
2019-03-27T14:22:38.541Z,100520.64
2019-03-27T14:25:09.338Z,100523.22
2019-03-27T14:27:38.736Z,100522.32
2019-03-27T14:30:12.169Z,100527.89
2019-03-27T14:32:41.539Z,100520.77
2019-03-27T14:35:10.903Z,100530.80
2019-03-27T14:37:40.255Z,100529.17
2019-03-27T14:40:09.705Z,100531.69
2019-03-27T14:42:39.062Z,100522.57
2019-03-27T14:45:09.144Z,100521.97
2019-03-27T14:47:38.582Z,100526.72
2019-03-27T14:50:08.901Z,100531.05
2019-03-27T14:52:38.275Z,100531.66
2019-03-27T14:55:08.466Z,100527.50
2019-03-27T14:57:38.636Z,100521.52
2019-03-27T15:00:10.602Z,100524.48
2019-03-27T15:02:40.091Z,100523.48
2019-03-27T15:05:10.567Z,100522.99
2019-03-27T15:07:42.019Z,100527.77
2019-03-27T15:10:11.100Z,100524.11
2019-03-27T15:12:40.502Z,100512.47
2019-03-27T15:15:11.168Z,100515.53
2019-03-27T15:17:40.606Z,100509.47
2019-03-27T15:20:10.043Z,100520.97
2019-03-27T15:22:39.392Z,100521.19
2019-03-27T15:25:08.984Z,100530.80
2019-03-27T15:27:38.335Z,100522.33
2019-03-27T15:30:12.817Z,100517.66
2019-03-27T15:32:41.969Z,100521.38
2019-03-27T15:35:11.329Z,100524.13
2019-03-27T15:37:40.715Z,100521.63
2019-03-27T15:40:10.136Z,100524.00
2019-03-27T15:42:39.863Z,100518.20
2019-03-27T15:45:09.253Z,100524.57
2019-03-27T15:47:38.685Z,100525.42
2019-03-27T15:50:08.064Z,100527.45
2019-03-27T15:52:37.510Z,100524.61
2019-03-27T15:55:06.868Z,100518.50
2019-03-27T15:57:36.226Z,100521.70
2019-03-27T16:00:06.510Z,100522.11
2019-03-27T16:02:35.871Z,100516.59
2019-03-27T16:05:06.765Z,100510.49
2019-03-27T16:07:36.224Z,100512.59
2019-03-27T16:10:07.421Z,100507.75
2019-03-27T16:12:36.857Z,100515.08
2019-03-27T16:15:09.255Z,100513.69
2019-03-27T16:17:38.605Z,100525.00
2019-03-27T16:20:08.169Z,100528.15
2019-03-27T16:22:50.029Z,100523.70
2019-03-27T16:25:08.957Z,100523.59
2019-03-27T16:27:38.324Z,100527.12
2019-03-27T16:30:07.753Z,100527.91
2019-03-27T16:32:37.111Z,100526.53
2019-03-27T16:35:07.705Z,100533.36
2019-03-27T16:37:37.072Z,100537.69
2019-03-27T16:40:07.065Z,100528.32
2019-03-27T16:42:36.504Z,100527.19
2019-03-27T16:45:08.984Z,100525.59
2019-03-27T16:47:38.342Z,100525.98
2019-03-27T16:50:10.446Z,100521.61
2019-03-27T16:52:39.091Z,100523.22
2019-03-27T16:55:08.576Z,100520.84
2019-03-27T16:57:37.988Z,100530.11
2019-03-27T17:00:08.195Z,100531.19
2019-03-27T17:02:37.585Z,100528.79
2019-03-27T17:05:07.801Z,100526.41
2019-03-27T17:07:37.240Z,100529.63
2019-03-27T17:10:07.796Z,100534.23
2019-03-27T17:12:37.160Z,100533.64
2019-03-27T17:15:07.311Z,100533.09
2019-03-27T17:17:42.306Z,100532.02
2019-03-27T17:20:12.779Z,100536.18
2019-03-27T17:22:42.129Z,100535.89
2019-03-27T17:25:11.552Z,100532.49
2019-03-27T17:27:40.933Z,100539.05
2019-03-27T17:30:10.902Z,100538.97
2019-03-27T17:32:40.257Z,100544.34
2019-03-27T17:35:09.620Z,100544.95
2019-03-27T17:37:38.967Z,100540.04
2019-03-27T17:40:08.399Z,100535.98
2019-03-27T17:42:37.788Z,100540.83
2019-03-27T17:45:07.712Z,100542.19
2019-03-27T17:47:37.058Z,100541.44
2019-03-27T17:50:07.560Z,100546.23
2019-03-27T17:52:38.355Z,100541.80
2019-03-27T17:55:08.352Z,100544.28
2019-03-27T17:57:37.696Z,100543.41
2019-03-27T18:00:12.254Z,100541.47
2019-03-27T18:02:41.639Z,100546.48
2019-03-27T18:05:10.993Z,100546.16
2019-03-27T18:07:40.356Z,100543.27
2019-03-27T18:10:09.717Z,100543.92
2019-03-27T18:12:39.074Z,100543.42
2019-03-27T18:15:08.503Z,100546.66
2019-03-27T18:17:37.860Z,100546.54
2019-03-27T18:20:07.230Z,100544.32
2019-03-27T18:22:36.582Z,100560.08
2019-03-27T18:25:06.971Z,100558.80
2019-03-27T18:27:36.409Z,100567.01
2019-03-27T18:30:07.679Z,100559.69
2019-03-27T18:32:37.075Z,100564.13
2019-03-27T18:35:07.403Z,100565.50
2019-03-27T18:37:36.763Z,100565.70
2019-03-27T18:40:07.458Z,100563.20
2019-03-27T18:42:36.828Z,100562.87
2019-03-27T18:45:09.205Z,100559.76
2019-03-27T18:47:38.553Z,100561.50
2019-03-27T18:50:08.078Z,100558.81
2019-03-27T18:52:37.474Z,100566.59
2019-03-27T18:55:08.499Z,100569.14
2019-03-27T18:57:37.879Z,100572.95
2019-03-27T19:00:08.915Z,100568.37
2019-03-27T19:02:38.278Z,100574.87
2019-03-27T19:05:11.077Z,100573.20
2019-03-27T19:07:40.426Z,100577.78
2019-03-27T19:10:11.435Z,100573.90
2019-03-27T19:12:40.786Z,100572.16
2019-03-27T19:15:10.135Z,100579.13
2019-03-27T19:17:39.511Z,100580.31
2019-03-27T19:20:08.875Z,100583.11
2019-03-27T19:22:38.259Z,100588.73
2019-03-27T19:25:08.384Z,100586.75
2019-03-27T19:27:37.748Z,100588.09
2019-03-27T19:30:09.022Z,100583.55
2019-03-27T19:32:38.382Z,100584.50
2019-03-27T19:35:07.765Z,100592.73
2019-03-27T19:37:37.094Z,100588.19
2019-03-27T19:40:06.812Z,100590.23
2019-03-27T19:42:36.251Z,100591.17
2019-03-27T19:45:06.657Z,100588.95
2019-03-27T19:47:36.082Z,100590.77
2019-03-27T19:50:07.069Z,100591.07
2019-03-27T19:52:36.401Z,100596.08
2019-03-27T19:55:06.546Z,100592.64
2019-03-27T19:57:35.902Z,100595.91
2019-03-27T20:00:09.017Z,100599.19
2019-03-27T20:02:38.541Z,100598.70
2019-03-27T20:05:08.753Z,100604.37
2019-03-27T20:07:38.109Z,100603.03
2019-03-27T20:10:08.724Z,100608.47
2019-03-27T20:12:38.166Z,100607.06
2019-03-27T20:15:12.247Z,100612.41
2019-03-27T20:17:39.193Z,100613.22
2019-03-27T20:20:09.767Z,100608.76
2019-03-27T20:22:39.174Z,100617.41
2019-03-27T20:25:09.892Z,100616.80
2019-03-27T20:27:39.251Z,100618.11
2019-03-27T20:30:15.490Z,100626.83
2019-03-27T20:32:44.831Z,100627.10
2019-03-27T20:35:14.180Z,100626.95
2019-03-27T20:37:43.609Z,100637.95
2019-03-27T20:40:13.029Z,100637.59
2019-03-27T20:42:42.438Z,100635.78
2019-03-27T20:45:11.855Z,100632.39
2019-03-27T20:47:41.192Z,100627.17
2019-03-27T20:50:10.551Z,100631.88
2019-03-27T20:52:39.904Z,100627.29
2019-03-27T20:55:09.279Z,100630.94
2019-03-27T20:57:38.683Z,100632.87
2019-03-27T21:00:09.012Z,100637.10
2019-03-27T21:02:38.358Z,100640.14
2019-03-27T21:05:08.076Z,100636.43
2019-03-27T21:07:37.448Z,100642.47
2019-03-27T21:10:07.522Z,100649.91
2019-03-27T21:12:36.932Z,100650.12
2019-03-27T21:15:07.710Z,100648.77
2019-03-27T21:17:37.045Z,100651.98
2019-03-27T21:20:07.059Z,100654.45
2019-03-27T21:22:36.387Z,100649.77
2019-03-27T21:25:09.173Z,100650.37
2019-03-27T21:27:38.585Z,100646.47
2019-03-27T21:30:11.447Z,100655.59
2019-03-27T21:32:40.916Z,100656.32
2019-03-27T21:35:10.248Z,100652.66
2019-03-27T21:37:39.592Z,100655.74
2019-03-27T21:40:09.025Z,100654.52
2019-03-27T21:42:38.466Z,100655.53
2019-03-27T21:45:10.912Z,100662.98
2019-03-27T21:47:40.265Z,100669.47
2019-03-27T21:50:09.944Z,100666.33
2019-03-27T21:52:39.403Z,100667.72
2019-03-27T21:55:21.464Z,100661.48
2019-03-27T21:57:39.839Z,100661.63
2019-03-27T22:00:10.889Z,100665.95
2019-03-27T22:02:40.986Z,100667.00
2019-03-27T22:05:10.372Z,100669.31
2019-03-27T22:07:39.737Z,100676.81
2019-03-27T22:10:09.101Z,100671.91
2019-03-27T22:12:38.800Z,100681.19
2019-03-27T22:15:09.884Z,100681.19
2019-03-27T22:17:39.254Z,100674.01
2019-03-27T22:20:08.676Z,100685.53
2019-03-27T22:22:38.046Z,100682.69
2019-03-27T22:25:08.270Z,100684.91
2019-03-27T22:27:37.688Z,100686.80
2019-03-27T22:30:09.922Z,100688.56
2019-03-27T22:32:39.284Z,100691.66
2019-03-27T22:35:08.799Z,100691.55
2019-03-27T22:37:38.148Z,100693.36
2019-03-27T22:40:08.295Z,100694.89
2019-03-27T22:42:37.659Z,100703.62
2019-03-27T22:45:07.304Z,100695.48
2019-03-27T22:47:36.736Z,100698.31
2019-03-27T22:50:08.398Z,100698.15
2019-03-27T22:52:38.062Z,100696.23
2019-03-27T22:55:08.675Z,100695.88
2019-03-27T22:57:38.037Z,100694.54
2019-03-27T23:00:12.174Z,100697.41
2019-03-27T23:02:41.575Z,100703.66
2019-03-27T23:05:10.960Z,100700.66
2019-03-27T23:07:40.584Z,100695.49
2019-03-27T23:10:09.953Z,100695.63
2019-03-27T23:12:39.297Z,100694.86
2019-03-27T23:15:10.556Z,100695.41
2019-03-27T23:17:40.096Z,100697.71
2019-03-27T23:20:09.467Z,100697.81
2019-03-27T23:22:38.815Z,100701.68
2019-03-27T23:25:09.148Z,100700.34
2019-03-27T23:27:38.497Z,100706.86
2019-03-27T23:30:08.980Z,100699.88
2019-03-27T23:32:38.338Z,100699.47
2019-03-27T23:35:08.534Z,100699.11
2019-03-27T23:37:37.866Z,100700.12
2019-03-27T23:40:07.602Z,100696.99
2019-03-27T23:42:36.953Z,100692.47
2019-03-27T23:45:07.439Z,100692.73
2019-03-27T23:47:36.814Z,100694.75
2019-03-27T23:50:08.670Z,100696.67
2019-03-27T23:52:38.109Z,100693.57
2019-03-27T23:55:07.713Z,100693.80
2019-03-27T23:57:37.373Z,100693.73
